sensor_id;sensor_type;location;lat;lon;timestamp;temperature;humidity
31675;DHT22;18276;45.520;11.018;2022-08-03T00:01:52;24.70;55.40
31675;DHT22;18276;45.520;11.018;2022-08-03T00:04:19;24.70;55.40
31675;DHT22;18276;45.520;11.018;2022-08-03T00:06:46;24.70;55.30
31675;DHT22;18276;45.520;11.018;2022-08-03T00:09:13;24.60;55.20
31675;DHT22;18276;45.520;11.018;2022-08-03T00:11:40;24.60;55.10
31675;DHT22;18276;45.520;11.018;2022-08-03T00:14:07;24.60;55.00
31675;DHT22;18276;45.520;11.018;2022-08-03T00:16:34;24.60;55.00
31675;DHT22;18276;45.520;11.018;2022-08-03T00:19:01;24.60;54.90
31675;DHT22;18276;45.520;11.018;2022-08-03T00:21:29;24.60;55.00
31675;DHT22;18276;45.520;11.018;2022-08-03T00:23:56;24.60;54.80
31675;DHT22;18276;45.520;11.018;2022-08-03T00:26:23;24.60;54.80
31675;DHT22;18276;45.520;11.018;2022-08-03T00:28:50;24.50;54.70
31675;DHT22;18276;45.520;11.018;2022-08-03T00:31:17;24.50;54.80
31675;DHT22;18276;45.520;11.018;2022-08-03T00:34:04;24.50;54.80
31675;DHT22;18276;45.520;11.018;2022-08-03T00:36:32;24.50;54.90
31675;DHT22;18276;45.520;11.018;2022-08-03T00:38:59;24.50;55.00
31675;DHT22;18276;45.520;11.018;2022-08-03T00:41:26;24.50;55.10
31675;DHT22;18276;45.520;11.018;2022-08-03T00:43:53;24.40;55.10
31675;DHT22;18276;45.520;11.018;2022-08-03T00:46:20;24.40;55.10
31675;DHT22;18276;45.520;11.018;2022-08-03T00:48:48;24.30;55.20
31675;DHT22;18276;45.520;11.018;2022-08-03T00:51:15;24.40;55.30
31675;DHT22;18276;45.520;11.018;2022-08-03T00:53:43;24.30;55.30
31675;DHT22;18276;45.520;11.018;2022-08-03T00:56:15;24.30;55.30
31675;DHT22;18276;45.520;11.018;2022-08-03T00:58:44;24.30;55.40
31675;DHT22;18276;45.520;11.018;2022-08-03T01:01:12;24.30;55.50
31675;DHT22;18276;45.520;11.018;2022-08-03T01:03:40;24.30;55.60
31675;DHT22;18276;45.520;11.018;2022-08-03T01:09:07;24.30;55.70
31675;DHT22;18276;45.520;11.018;2022-08-03T01:11:43;24.20;55.80
31675;DHT22;18276;45.520;11.018;2022-08-03T01:14:59;24.20;55.90
31675;DHT22;18276;45.520;11.018;2022-08-03T01:17:45;24.20;56.00
31675;DHT22;18276;45.520;11.018;2022-08-03T01:20:15;24.20;56.10
31675;DHT22;18276;45.520;11.018;2022-08-03T01:29:19;24.20;56.20
31675;DHT22;18276;45.520;11.018;2022-08-03T01:32:00;24.10;56.20
31675;DHT22;18276;45.520;11.018;2022-08-03T01:34:54;24.20;56.20
31675;DHT22;18276;45.520;11.018;2022-08-03T01:37:26;24.20;56.30
31675;DHT22;18276;45.520;11.018;2022-08-03T01:39:57;24.20;56.40
31675;DHT22;18276;45.520;11.018;2022-08-03T01:42:27;24.10;56.40
31675;DHT22;18276;45.520;11.018;2022-08-03T01:44:56;24.20;56.50
31675;DHT22;18276;45.520;11.018;2022-08-03T01:47:25;24.20;56.60
31675;DHT22;18276;45.520;11.018;2022-08-03T01:49:55;24.10;56.60
31675;DHT22;18276;45.520;11.018;2022-08-03T01:52:24;24.10;56.70
31675;DHT22;18276;45.520;11.018;2022-08-03T01:54:52;24.10;56.70
31675;DHT22;18276;45.520;11.018;2022-08-03T01:57:21;24.10;56.90
31675;DHT22;18276;45.520;11.018;2022-08-03T01:59:49;24.00;56.90
31675;DHT22;18276;45.520;11.018;2022-08-03T02:02:19;24.00;57.00
31675;DHT22;18276;45.520;11.018;2022-08-03T02:05:00;24.00;57.10
31675;DHT22;18276;45.520;11.018;2022-08-03T02:07:29;24.00;57.10
31675;DHT22;18276;45.520;11.018;2022-08-03T02:09:58;24.00;57.10
31675;DHT22;18276;45.520;11.018;2022-08-03T02:12:27;24.00;57.20
31675;DHT22;18276;45.520;11.018;2022-08-03T02:14:56;24.00;57.10
31675;DHT22;18276;45.520;11.018;2022-08-03T02:17:26;24.00;57.10
31675;DHT22;18276;45.520;11.018;2022-08-03T02:20:07;24.00;57.10
31675;DHT22;18276;45.520;11.018;2022-08-03T02:22:39;24.00;57.10
31675;DHT22;18276;45.520;11.018;2022-08-03T02:25:10;24.00;57.20
31675;DHT22;18276;45.520;11.018;2022-08-03T02:28:09;23.90;57.20
31675;DHT22;18276;45.520;11.018;2022-08-03T02:30:39;24.00;57.30
31675;DHT22;18276;45.520;11.018;2022-08-03T02:33:11;23.90;57.30
31675;DHT22;18276;45.520;11.018;2022-08-03T02:35:40;23.90;57.40
31675;DHT22;18276;45.520;11.018;2022-08-03T02:38:10;23.80;57.40
31675;DHT22;18276;45.520;11.018;2022-08-03T02:40:39;23.80;57.50
31675;DHT22;18276;45.520;11.018;2022-08-03T02:43:11;23.80;57.50
31675;DHT22;18276;45.520;11.018;2022-08-03T02:45:44;23.80;57.60
31675;DHT22;18276;45.520;11.018;2022-08-03T02:48:16;23.80;57.60
31675;DHT22;18276;45.520;11.018;2022-08-03T02:50:44;23.80;57.70
31675;DHT22;18276;45.520;11.018;2022-08-03T02:53:13;23.70;57.70
31675;DHT22;18276;45.520;11.018;2022-08-03T02:55:41;23.70;57.80
31675;DHT22;18276;45.520;11.018;2022-08-03T02:58:12;23.70;57.80
31675;DHT22;18276;45.520;11.018;2022-08-03T03:00:40;23.70;57.80
31675;DHT22;18276;45.520;11.018;2022-08-03T03:03:10;23.70;57.80
31675;DHT22;18276;45.520;11.018;2022-08-03T03:05:39;23.60;57.80
31675;DHT22;18276;45.520;11.018;2022-08-03T03:08:24;23.60;57.90
31675;DHT22;18276;45.520;11.018;2022-08-03T03:10:56;23.70;57.90
31675;DHT22;18276;45.520;11.018;2022-08-03T03:13:27;23.60;57.90
31675;DHT22;18276;45.520;11.018;2022-08-03T03:15:57;23.60;57.90
31675;DHT22;18276;45.520;11.018;2022-08-03T03:18:27;23.60;57.90
31675;DHT22;18276;45.520;11.018;2022-08-03T03:20:55;23.60;57.90
31675;DHT22;18276;45.520;11.018;2022-08-03T03:23:24;23.50;57.80
31675;DHT22;18276;45.520;11.018;2022-08-03T03:25:52;23.60;57.90
31675;DHT22;18276;45.520;11.018;2022-08-03T03:28:23;23.60;57.90
31675;DHT22;18276;45.520;11.018;2022-08-03T03:30:50;23.60;57.90
31675;DHT22;18276;45.520;11.018;2022-08-03T03:33:23;23.50;57.90
31675;DHT22;18276;45.520;11.018;2022-08-03T03:35:50;23.50;57.90
31675;DHT22;18276;45.520;11.018;2022-08-03T03:38:18;23.50;58.00
31675;DHT22;18276;45.520;11.018;2022-08-03T03:40:45;23.50;58.00
31675;DHT22;18276;45.520;11.018;2022-08-03T03:43:12;23.50;58.00
31675;DHT22;18276;45.520;11.018;2022-08-03T03:45:40;23.50;58.10
31675;DHT22;18276;45.520;11.018;2022-08-03T03:48:09;23.50;58.10
31675;DHT22;18276;45.520;11.018;2022-08-03T03:50:36;23.40;58.10
31675;DHT22;18276;45.520;11.018;2022-08-03T03:53:11;23.40;58.00
31675;DHT22;18276;45.520;11.018;2022-08-03T03:55:38;23.50;58.00
31675;DHT22;18276;45.520;11.018;2022-08-03T03:58:25;23.50;58.00
31675;DHT22;18276;45.520;11.018;2022-08-03T04:00:52;23.40;58.00
31675;DHT22;18276;45.520;11.018;2022-08-03T04:03:20;23.50;57.90
31675;DHT22;18276;45.520;11.018;2022-08-03T04:05:47;23.40;57.90
31675;DHT22;18276;45.520;11.018;2022-08-03T04:08:32;23.40;57.90
31675;DHT22;18276;45.520;11.018;2022-08-03T04:11:40;23.40;58.00
31675;DHT22;18276;45.520;11.018;2022-08-03T04:14:19;23.50;58.00
31675;DHT22;18276;45.520;11.018;2022-08-03T04:16:52;23.40;58.00
31675;DHT22;18276;45.520;11.018;2022-08-03T04:22:06;23.50;58.10
31675;DHT22;18276;45.520;11.018;2022-08-03T04:24:42;23.50;58.00
31675;DHT22;18276;45.520;11.018;2022-08-03T04:27:12;23.50;58.00
31675;DHT22;18276;45.520;11.018;2022-08-03T04:29:47;23.50;57.90
31675;DHT22;18276;45.520;11.018;2022-08-03T04:32:15;23.50;57.90
31675;DHT22;18276;45.520;11.018;2022-08-03T04:34:44;23.50;57.80
31675;DHT22;18276;45.520;11.018;2022-08-03T04:37:21;23.50;57.70
31675;DHT22;18276;45.520;11.018;2022-08-03T04:39:52;23.60;57.80
31675;DHT22;18276;45.520;11.018;2022-08-03T04:42:23;23.60;57.70
31675;DHT22;18276;45.520;11.018;2022-08-03T04:44:51;23.60;57.70
31675;DHT22;18276;45.520;11.018;2022-08-03T04:47:26;23.60;57.60
31675;DHT22;18276;45.520;11.018;2022-08-03T04:49:54;23.70;57.50
31675;DHT22;18276;45.520;11.018;2022-08-03T04:52:21;23.70;57.40
31675;DHT22;18276;45.520;11.018;2022-08-03T04:54:48;23.70;57.30
31675;DHT22;18276;45.520;11.018;2022-08-03T04:57:17;23.80;57.30
31675;DHT22;18276;45.520;11.018;2022-08-03T04:59:53;23.80;57.10
31675;DHT22;18276;45.520;11.018;2022-08-03T05:02:29;23.90;57.00
31675;DHT22;18276;45.520;11.018;2022-08-03T05:04:57;24.10;56.60
31675;DHT22;18276;45.520;11.018;2022-08-03T05:07:24;24.30;56.40
31675;DHT22;18276;45.520;11.018;2022-08-03T05:09:51;24.50;55.90
31675;DHT22;18276;45.520;11.018;2022-08-03T05:12:29;25.00;55.10
31675;DHT22;18276;45.520;11.018;2022-08-03T05:15:00;25.80;53.90
31675;DHT22;18276;45.520;11.018;2022-08-03T05:17:27;26.50;52.70
31675;DHT22;18276;45.520;11.018;2022-08-03T05:19:55;27.10;51.20
31675;DHT22;18276;45.520;11.018;2022-08-03T05:22:22;27.60;49.80
31675;DHT22;18276;45.520;11.018;2022-08-03T05:24:50;28.00;48.90
31675;DHT22;18276;45.520;11.018;2022-08-03T05:27:17;28.40;48.00
31675;DHT22;18276;45.520;11.018;2022-08-03T05:29:47;28.80;47.10
31675;DHT22;18276;45.520;11.018;2022-08-03T05:32:15;29.10;47.00
31675;DHT22;18276;45.520;11.018;2022-08-03T05:34:44;29.50;45.70
31675;DHT22;18276;45.520;11.018;2022-08-03T05:37:11;29.80;44.90
31675;DHT22;18276;45.520;11.018;2022-08-03T05:39:38;30.20;44.00
31675;DHT22;18276;45.520;11.018;2022-08-03T05:42:05;30.50;43.20
31675;DHT22;18276;45.520;11.018;2022-08-03T05:44:32;30.80;42.40
31675;DHT22;18276;45.520;11.018;2022-08-03T05:46:59;31.00;42.00
31675;DHT22;18276;45.520;11.018;2022-08-03T05:49:26;31.30;41.50
31675;DHT22;18276;45.520;11.018;2022-08-03T05:51:53;31.60;40.90
31675;DHT22;18276;45.520;11.018;2022-08-03T05:54:39;31.80;40.40
31675;DHT22;18276;45.520;11.018;2022-08-03T05:57:24;32.10;39.80
31675;DHT22;18276;45.520;11.018;2022-08-03T05:59:51;32.20;39.70
31675;DHT22;18276;45.520;11.018;2022-08-03T06:02:27;32.50;39.40
31675;DHT22;18276;45.520;11.018;2022-08-03T06:04:54;32.70;39.10
31675;DHT22;18276;45.520;11.018;2022-08-03T06:07:21;32.80;38.50
31675;DHT22;18276;45.520;11.018;2022-08-03T06:09:48;33.10;37.80
31675;DHT22;18276;45.520;11.018;2022-08-03T06:12:35;33.40;37.40
31675;DHT22;18276;45.520;11.018;2022-08-03T06:15:03;33.80;36.80
31675;DHT22;18276;45.520;11.018;2022-08-03T06:17:33;34.10;36.20
31675;DHT22;18276;45.520;11.018;2022-08-03T06:20:04;34.50;35.90
31675;DHT22;18276;45.520;11.018;2022-08-03T06:22:31;34.80;35.70
31675;DHT22;18276;45.520;11.018;2022-08-03T06:24:58;35.20;35.20
31675;DHT22;18276;45.520;11.018;2022-08-03T06:27:33;35.50;35.10
31675;DHT22;18276;45.520;11.018;2022-08-03T06:30:04;35.80;34.80
31675;DHT22;18276;45.520;11.018;2022-08-03T06:32:31;35.90;34.40
31675;DHT22;18276;45.520;11.018;2022-08-03T06:34:59;36.10;34.20
31675;DHT22;18276;45.520;11.018;2022-08-03T06:37:27;36.30;33.70
31675;DHT22;18276;45.520;11.018;2022-08-03T06:39:54;36.70;33.20
31675;DHT22;18276;45.520;11.018;2022-08-03T06:42:22;37.00;32.40
31675;DHT22;18276;45.520;11.018;2022-08-03T06:44:50;37.30;32.00
31675;DHT22;18276;45.520;11.018;2022-08-03T06:47:17;37.40;31.80
31675;DHT22;18276;45.520;11.018;2022-08-03T06:49:44;37.50;31.80
31675;DHT22;18276;45.520;11.018;2022-08-03T06:52:32;37.50;31.90
31675;DHT22;18276;45.520;11.018;2022-08-03T06:55:04;37.40;32.00
31675;DHT22;18276;45.520;11.018;2022-08-03T06:57:32;37.30;33.00
31675;DHT22;18276;45.520;11.018;2022-08-03T06:59:59;37.20;32.50
31675;DHT22;18276;45.520;11.018;2022-08-03T07:02:37;37.30;32.50
31675;DHT22;18276;45.520;11.018;2022-08-03T07:05:06;37.30;32.80
31675;DHT22;18276;45.520;11.018;2022-08-03T07:07:34;37.30;33.50
31675;DHT22;18276;45.520;11.018;2022-08-03T07:10:01;37.30;32.70
31675;DHT22;18276;45.520;11.018;2022-08-03T07:12:29;37.30;32.70
31675;DHT22;18276;45.520;11.018;2022-08-03T07:14:57;37.40;32.70
31675;DHT22;18276;45.520;11.018;2022-08-03T07:17:30;37.50;32.70
31675;DHT22;18276;45.520;11.018;2022-08-03T07:19:57;37.70;32.60
31675;DHT22;18276;45.520;11.018;2022-08-03T07:22:25;37.90;32.00
31675;DHT22;18276;45.520;11.018;2022-08-03T07:24:52;38.00;31.90
31675;DHT22;18276;45.520;11.018;2022-08-03T07:27:19;38.20;31.50
31675;DHT22;18276;45.520;11.018;2022-08-03T07:29:46;38.30;31.40
31675;DHT22;18276;45.520;11.018;2022-08-03T07:32:13;38.50;30.80
31675;DHT22;18276;45.520;11.018;2022-08-03T07:34:40;38.40;30.80
31675;DHT22;18276;45.520;11.018;2022-08-03T07:37:07;38.60;30.90
31675;DHT22;18276;45.520;11.018;2022-08-03T07:39:34;38.90;30.40
31675;DHT22;18276;45.520;11.018;2022-08-03T07:42:01;39.10;30.10
31675;DHT22;18276;45.520;11.018;2022-08-03T07:44:28;39.40;29.70
31675;DHT22;18276;45.520;11.018;2022-08-03T07:46:55;39.60;29.60
31675;DHT22;18276;45.520;11.018;2022-08-03T07:49:23;40.00;29.30
31675;DHT22;18276;45.520;11.018;2022-08-03T07:51:51;40.20;28.90
31675;DHT22;18276;45.520;11.018;2022-08-03T07:54:37;40.30;28.50
31675;DHT22;18276;45.520;11.018;2022-08-03T07:57:04;40.00;28.70
31675;DHT22;18276;45.520;11.018;2022-08-03T07:59:32;40.10;28.60
31675;DHT22;18276;45.520;11.018;2022-08-03T08:02:20;40.10;28.40
31675;DHT22;18276;45.520;11.018;2022-08-03T08:04:47;40.20;28.20
31675;DHT22;18276;45.520;11.018;2022-08-03T08:07:14;40.50;28.00
31675;DHT22;18276;45.520;11.018;2022-08-03T08:09:43;40.80;27.70
31675;DHT22;18276;45.520;11.018;2022-08-03T08:12:10;40.90;27.50
31675;DHT22;18276;45.520;11.018;2022-08-03T08:14:41;41.00;27.20
31675;DHT22;18276;45.520;11.018;2022-08-03T08:17:12;40.90;27.40
31675;DHT22;18276;45.520;11.018;2022-08-03T08:19:39;40.60;27.30
31675;DHT22;18276;45.520;11.018;2022-08-03T08:22:16;40.60;27.40
31675;DHT22;18276;45.520;11.018;2022-08-03T08:24:50;40.60;27.50
31675;DHT22;18276;45.520;11.018;2022-08-03T08:27:18;40.70;27.30
31675;DHT22;18276;45.520;11.018;2022-08-03T08:29:45;40.70;27.30
31675;DHT22;18276;45.520;11.018;2022-08-03T08:32:22;40.60;27.30
31675;DHT22;18276;45.520;11.018;2022-08-03T08:34:49;40.70;27.40
31675;DHT22;18276;45.520;11.018;2022-08-03T08:37:16;41.00;27.40
31675;DHT22;18276;45.520;11.018;2022-08-03T08:39:43;41.00;27.10
31675;DHT22;18276;45.520;11.018;2022-08-03T08:42:10;41.10;27.10
31675;DHT22;18276;45.520;11.018;2022-08-03T08:44:37;41.30;26.80
31675;DHT22;18276;45.520;11.018;2022-08-03T08:47:06;41.20;26.80
31675;DHT22;18276;45.520;11.018;2022-08-03T08:49:35;41.30;26.80
31675;DHT22;18276;45.520;11.018;2022-08-03T08:52:04;41.70;26.60
31675;DHT22;18276;45.520;11.018;2022-08-03T08:54:58;41.80;26.50
31675;DHT22;18276;45.520;11.018;2022-08-03T08:57:34;41.90;26.40
31675;DHT22;18276;45.520;11.018;2022-08-03T09:00:11;42.10;26.20
31675;DHT22;18276;45.520;11.018;2022-08-03T09:02:42;41.90;26.10
31675;DHT22;18276;45.520;11.018;2022-08-03T09:05:12;41.90;26.20
31675;DHT22;18276;45.520;11.018;2022-08-03T09:07:41;41.90;26.40
31675;DHT22;18276;45.520;11.018;2022-08-03T09:10:10;41.80;26.60
31675;DHT22;18276;45.520;11.018;2022-08-03T09:12:44;41.80;26.60
31675;DHT22;18276;45.520;11.018;2022-08-03T09:15:25;41.80;26.60
31675;DHT22;18276;45.520;11.018;2022-08-03T09:17:55;42.20;26.40
31675;DHT22;18276;45.520;11.018;2022-08-03T09:20:25;42.10;26.20
31675;DHT22;18276;45.520;11.018;2022-08-03T09:22:56;41.90;26.00
31675;DHT22;18276;45.520;11.018;2022-08-03T09:25:34;41.60;26.60
31675;DHT22;18276;45.520;11.018;2022-08-03T09:28:09;41.90;26.40
31675;DHT22;18276;45.520;11.018;2022-08-03T09:30:38;42.30;26.10
31675;DHT22;18276;45.520;11.018;2022-08-03T09:33:10;42.80;25.70
31675;DHT22;18276;45.520;11.018;2022-08-03T09:35:42;43.20;25.40
31675;DHT22;18276;45.520;11.018;2022-08-03T09:38:22;43.50;25.30
31675;DHT22;18276;45.520;11.018;2022-08-03T09:40:50;43.20;25.60
31675;DHT22;18276;45.520;11.018;2022-08-03T09:43:23;43.00;25.30
31675;DHT22;18276;45.520;11.018;2022-08-03T09:46:02;42.70;25.70
31675;DHT22;18276;45.520;11.018;2022-08-03T09:48:30;42.90;25.60
31675;DHT22;18276;45.520;11.018;2022-08-03T09:50:59;43.00;25.60
31675;DHT22;18276;45.520;11.018;2022-08-03T09:53:46;43.00;25.80
31675;DHT22;18276;45.520;11.018;2022-08-03T09:56:45;43.20;25.50
31675;DHT22;18276;45.520;11.018;2022-08-03T09:59:21;43.40;25.00
31675;DHT22;18276;45.520;11.018;2022-08-03T10:01:49;43.50;25.10
31675;DHT22;18276;45.520;11.018;2022-08-03T10:04:16;43.50;25.10
31675;DHT22;18276;45.520;11.018;2022-08-03T10:06:44;43.30;25.20
31675;DHT22;18276;45.520;11.018;2022-08-03T10:09:14;43.10;25.20
31675;DHT22;18276;45.520;11.018;2022-08-03T10:11:43;43.00;25.50
31675;DHT22;18276;45.520;11.018;2022-08-03T10:14:11;43.30;25.30
31675;DHT22;18276;45.520;11.018;2022-08-03T10:16:46;43.50;25.10
31675;DHT22;18276;45.520;11.018;2022-08-03T10:19:14;43.80;24.80
31675;DHT22;18276;45.520;11.018;2022-08-03T10:21:49;43.90;24.70
31675;DHT22;18276;45.520;11.018;2022-08-03T10:24:25;44.00;24.60
31675;DHT22;18276;45.520;11.018;2022-08-03T10:27:06;44.00;24.90
31675;DHT22;18276;45.520;11.018;2022-08-03T10:29:37;44.20;24.50
31675;DHT22;18276;45.520;11.018;2022-08-03T10:32:19;44.40;24.70
31675;DHT22;18276;45.520;11.018;2022-08-03T10:34:50;44.50;24.50
31675;DHT22;18276;45.520;11.018;2022-08-03T10:37:28;44.80;24.20
31675;DHT22;18276;45.520;11.018;2022-08-03T10:39:57;45.50;24.00
31675;DHT22;18276;45.520;11.018;2022-08-03T10:42:27;45.60;23.70
31675;DHT22;18276;45.520;11.018;2022-08-03T10:45:04;45.60;23.60
31675;DHT22;18276;45.520;11.018;2022-08-03T10:47:33;45.60;23.60
31675;DHT22;18276;45.520;11.018;2022-08-03T10:50:01;45.70;23.60
31675;DHT22;18276;45.520;11.018;2022-08-03T10:52:30;45.50;23.60
31675;DHT22;18276;45.520;11.018;2022-08-03T10:55:29;45.40;23.70
31675;DHT22;18276;45.520;11.018;2022-08-03T11:01:07;44.80;23.80
31675;DHT22;18276;45.520;11.018;2022-08-03T11:06:23;45.10;23.80
31675;DHT22;18276;45.520;11.018;2022-08-03T11:11:37;45.40;23.60
31675;DHT22;18276;45.520;11.018;2022-08-03T11:14:16;45.30;23.50
31675;DHT22;18276;45.520;11.018;2022-08-03T11:16:49;44.90;23.90
31675;DHT22;18276;45.520;11.018;2022-08-03T11:19:19;44.30;24.20
31675;DHT22;18276;45.520;11.018;2022-08-03T11:21:55;44.50;24.40
31675;DHT22;18276;45.520;11.018;2022-08-03T11:27:21;45.10;23.80
31675;DHT22;18276;45.520;11.018;2022-08-03T11:46:06;45.60;23.50
31675;DHT22;18276;45.520;11.018;2022-08-03T11:48:39;46.00;23.30
31675;DHT22;18276;45.520;11.018;2022-08-03T11:51:38;45.80;23.30
31675;DHT22;18276;45.520;11.018;2022-08-03T11:54:06;45.50;23.60
31675;DHT22;18276;45.520;11.018;2022-08-03T11:56:47;45.40;23.70
31675;DHT22;18276;45.520;11.018;2022-08-03T11:59:15;45.30;23.40
31675;DHT22;18276;45.520;11.018;2022-08-03T12:01:47;45.00;23.80
31675;DHT22;18276;45.520;11.018;2022-08-03T12:04:14;44.50;24.30
31675;DHT22;18276;45.520;11.018;2022-08-03T12:06:57;44.50;24.50
31675;DHT22;18276;45.520;11.018;2022-08-03T12:09:24;44.50;24.30
31675;DHT22;18276;45.520;11.018;2022-08-03T12:11:51;44.30;24.40
31675;DHT22;18276;45.520;11.018;2022-08-03T12:14:27;44.20;24.40
31675;DHT22;18276;45.520;11.018;2022-08-03T12:17:15;44.30;24.20
31675;DHT22;18276;45.520;11.018;2022-08-03T12:19:43;44.30;24.60
31675;DHT22;18276;45.520;11.018;2022-08-03T12:22:11;44.20;24.30
31675;DHT22;18276;45.520;11.018;2022-08-03T12:24:42;44.20;24.40
31675;DHT22;18276;45.520;11.018;2022-08-03T12:27:22;43.70;24.40
31675;DHT22;18276;45.520;11.018;2022-08-03T12:29:53;43.40;24.90
31675;DHT22;18276;45.520;11.018;2022-08-03T12:32:26;43.20;24.80
31675;DHT22;18276;45.520;11.018;2022-08-03T12:34:53;42.70;25.30
31675;DHT22;18276;45.520;11.018;2022-08-03T12:37:21;42.10;25.70
31675;DHT22;18276;45.520;11.018;2022-08-03T12:39:51;41.20;26.40
31675;DHT22;18276;45.520;11.018;2022-08-03T12:42:32;40.50;26.90
31675;DHT22;18276;45.520;11.018;2022-08-03T12:45:24;40.10;27.30
31675;DHT22;18276;45.520;11.018;2022-08-03T12:47:59;39.60;27.70
31675;DHT22;18276;45.520;11.018;2022-08-03T12:50:31;39.40;28.10
31675;DHT22;18276;45.520;11.018;2022-08-03T12:53:00;39.20;28.50
31675;DHT22;18276;45.520;11.018;2022-08-03T12:55:27;38.70;28.70
31675;DHT22;18276;45.520;11.018;2022-08-03T12:58:33;38.60;29.00
31675;DHT22;18276;45.520;11.018;2022-08-03T13:01:04;38.50;29.10
31675;DHT22;18276;45.520;11.018;2022-08-03T13:03:43;38.60;29.10
31675;DHT22;18276;45.520;11.018;2022-08-03T13:06:17;38.70;28.80
31675;DHT22;18276;45.520;11.018;2022-08-03T13:08:44;38.50;28.90
31675;DHT22;18276;45.520;11.018;2022-08-03T13:11:32;38.00;29.20
31675;DHT22;18276;45.520;11.018;2022-08-03T13:14:19;37.70;29.70
31675;DHT22;18276;45.520;11.018;2022-08-03T13:16:47;37.50;29.80
31675;DHT22;18276;45.520;11.018;2022-08-03T13:19:15;37.50;30.00
31675;DHT22;18276;45.520;11.018;2022-08-03T13:21:43;37.50;30.00
31675;DHT22;18276;45.520;11.018;2022-08-03T13:24:31;37.60;29.90
31675;DHT22;18276;45.520;11.018;2022-08-03T13:26:59;37.70;29.90
31675;DHT22;18276;45.520;11.018;2022-08-03T13:29:46;37.50;30.00
31675;DHT22;18276;45.520;11.018;2022-08-03T13:32:13;37.20;30.30
31675;DHT22;18276;45.520;11.018;2022-08-03T13:34:40;37.00;30.60
31675;DHT22;18276;45.520;11.018;2022-08-03T13:37:08;37.10;30.60
31675;DHT22;18276;45.520;11.018;2022-08-03T13:39:36;37.10;30.50
31675;DHT22;18276;45.520;11.018;2022-08-03T13:42:24;37.10;30.50
31675;DHT22;18276;45.520;11.018;2022-08-03T13:44:51;37.30;30.40
31675;DHT22;18276;45.520;11.018;2022-08-03T13:47:18;37.50;30.20
31675;DHT22;18276;45.520;11.018;2022-08-03T13:49:46;37.50;30.00
31675;DHT22;18276;45.520;11.018;2022-08-03T13:52:30;37.50;30.40
31675;DHT22;18276;45.520;11.018;2022-08-03T13:54:57;37.40;30.30
31675;DHT22;18276;45.520;11.018;2022-08-03T13:57:25;37.20;30.50
31675;DHT22;18276;45.520;11.018;2022-08-03T14:00:13;37.10;30.60
31675;DHT22;18276;45.520;11.018;2022-08-03T14:02:52;36.90;30.70
31675;DHT22;18276;45.520;11.018;2022-08-03T14:05:28;37.00;30.80
31675;DHT22;18276;45.520;11.018;2022-08-03T14:07:58;37.00;30.80
31675;DHT22;18276;45.520;11.018;2022-08-03T14:10:31;36.60;31.20
31675;DHT22;18276;45.520;11.018;2022-08-03T14:12:58;36.20;32.10
31675;DHT22;18276;45.520;11.018;2022-08-03T14:15:26;35.90;32.30
31675;DHT22;18276;45.520;11.018;2022-08-03T14:17:54;35.70;32.50
31675;DHT22;18276;45.520;11.018;2022-08-03T14:20:25;35.70;32.80
31675;DHT22;18276;45.520;11.018;2022-08-03T14:23:13;35.70;32.60
31675;DHT22;18276;45.520;11.018;2022-08-03T14:25:41;35.80;32.50
31675;DHT22;18276;45.520;11.018;2022-08-03T14:28:17;35.90;32.50
31675;DHT22;18276;45.520;11.018;2022-08-03T14:30:45;35.80;32.60
31675;DHT22;18276;45.520;11.018;2022-08-03T14:33:13;35.80;32.70
31675;DHT22;18276;45.520;11.018;2022-08-03T14:35:41;35.80;32.90
31675;DHT22;18276;45.520;11.018;2022-08-03T14:38:08;35.70;33.00
31675;DHT22;18276;45.520;11.018;2022-08-03T14:40:35;35.80;32.90
31675;DHT22;18276;45.520;11.018;2022-08-03T14:43:02;35.70;32.90
31675;DHT22;18276;45.520;11.018;2022-08-03T14:45:29;35.70;32.90
31675;DHT22;18276;45.520;11.018;2022-08-03T14:47:56;35.60;32.90
31675;DHT22;18276;45.520;11.018;2022-08-03T14:50:45;35.70;32.90
31675;DHT22;18276;45.520;11.018;2022-08-03T14:53:18;35.70;32.70
31675;DHT22;18276;45.520;11.018;2022-08-03T14:55:46;35.70;33.10
31675;DHT22;18276;45.520;11.018;2022-08-03T14:58:21;35.60;32.90
31675;DHT22;18276;45.520;11.018;2022-08-03T15:00:49;35.50;33.50
31675;DHT22;18276;45.520;11.018;2022-08-03T15:03:18;35.50;33.40
31675;DHT22;18276;45.520;11.018;2022-08-03T15:05:54;35.60;33.20
31675;DHT22;18276;45.520;11.018;2022-08-03T15:08:22;35.70;33.10
31675;DHT22;18276;45.520;11.018;2022-08-03T15:10:50;35.80;32.90
31675;DHT22;18276;45.520;11.018;2022-08-03T15:13:18;35.90;32.80
31675;DHT22;18276;45.520;11.018;2022-08-03T15:15:45;35.80;32.60
31675;DHT22;18276;45.520;11.018;2022-08-03T15:18:13;35.80;32.70
31675;DHT22;18276;45.520;11.018;2022-08-03T15:20:40;35.80;32.70
31675;DHT22;18276;45.520;11.018;2022-08-03T15:23:14;35.70;32.80
31675;DHT22;18276;45.520;11.018;2022-08-03T15:25:44;35.60;32.90
31675;DHT22;18276;45.520;11.018;2022-08-03T15:28:32;35.60;32.90
31675;DHT22;18276;45.520;11.018;2022-08-03T15:30:59;35.60;33.90
31675;DHT22;18276;45.520;11.018;2022-08-03T15:33:27;35.50;33.00
31675;DHT22;18276;45.520;11.018;2022-08-03T15:35:55;35.30;33.20
31675;DHT22;18276;45.520;11.018;2022-08-03T15:38:22;35.30;33.40
31675;DHT22;18276;45.520;11.018;2022-08-03T15:40:52;35.30;33.50
31675;DHT22;18276;45.520;11.018;2022-08-03T15:43:22;35.10;33.60
31675;DHT22;18276;45.520;11.018;2022-08-03T15:45:50;34.90;33.70
31675;DHT22;18276;45.520;11.018;2022-08-03T15:48:38;34.80;33.90
31675;DHT22;18276;45.520;11.018;2022-08-03T15:51:06;34.80;33.90
31675;DHT22;18276;45.520;11.018;2022-08-03T15:53:33;34.90;34.20
31675;DHT22;18276;45.520;11.018;2022-08-03T15:56:01;35.00;34.00
31675;DHT22;18276;45.520;11.018;2022-08-03T15:58:36;35.10;33.80
31675;DHT22;18276;45.520;11.018;2022-08-03T16:01:24;35.00;34.00
31675;DHT22;18276;45.520;11.018;2022-08-03T16:03:52;34.80;34.30
31675;DHT22;18276;45.520;11.018;2022-08-03T16:06:19;34.80;34.40
31675;DHT22;18276;45.520;11.018;2022-08-03T16:09:03;34.70;34.30
31675;DHT22;18276;45.520;11.018;2022-08-03T16:11:50;34.70;34.50
31675;DHT22;18276;45.520;11.018;2022-08-03T16:14:17;34.60;34.60
31675;DHT22;18276;45.520;11.018;2022-08-03T16:16:59;34.60;34.70
31675;DHT22;18276;45.520;11.018;2022-08-03T16:19:26;34.60;34.60
31675;DHT22;18276;45.520;11.018;2022-08-03T16:21:53;34.50;34.70
31675;DHT22;18276;45.520;11.018;2022-08-03T16:24:23;34.40;34.80